sensor_id;sensor_type;location;lat;lon;timestamp;pressure;altitude;pressure_sealevel;temperature;humidity
73085;BME280;62974;49.460;10.892;2024-02-28T00:00:29;97571.94;;;4.19;100.00
73085;BME280;62974;49.460;10.892;2024-02-28T00:02:56;97573.25;;;4.07;100.00
73085;BME280;62974;49.460;10.892;2024-02-28T00:05:24;97577.56;;;4.00;100.00
73085;BME280;62974;49.460;10.892;2024-02-28T00:07:53;97576.59;;;4.33;100.00
73085;BME280;62974;49.460;10.892;2024-02-28T00:10:20;97586.75;;;4.30;100.00
73085;BME280;62974;49.460;10.892;2024-02-28T00:12:48;97574.44;;;4.04;100.00
73085;BME280;62974;49.460;10.892;2024-02-28T00:15:15;97572.13;;;4.01;100.00
73085;BME280;62974;49.460;10.892;2024-02-28T00:17:43;97552.34;;;4.04;100.00
73085;BME280;62974;49.460;10.892;2024-02-28T00:20:11;97561.31;;;4.35;100.00
73085;BME280;62974;49.460;10.892;2024-02-28T00:22:39;97574.44;;;4.29;100.00
73085;BME280;62974;49.460;10.892;2024-02-28T00:25:10;97587.03;;;4.10;100.00
73085;BME280;62974;49.460;10.892;2024-02-28T00:27:39;97572.63;;;4.29;100.00
73085;BME280;62974;49.460;10.892;2024-02-28T00:30:07;97588.91;;;4.10;100.00
73085;BME280;62974;49.460;10.892;2024-02-28T00:32:35;97590.53;;;4.27;100.00
73085;BME280;62974;49.460;10.892;2024-02-28T00:35:03;97575.44;;;4.28;100.00
73085;BME280;62974;49.460;10.892;2024-02-28T00:37:31;97580.91;;;3.86;100.00
73085;BME280;62974;49.460;10.892;2024-02-28T00:39:59;97572.78;;;4.11;100.00
73085;BME280;62974;49.460;10.892;2024-02-28T00:42:28;97577.75;;;4.14;100.00
73085;BME280;62974;49.460;10.892;2024-02-28T00:44:55;97590.19;;;4.62;100.00
73085;BME280;62974;49.460;10.892;2024-02-28T00:47:22;97599.84;;;4.31;100.00
73085;BME280;62974;49.460;10.892;2024-02-28T00:49:50;97594.38;;;4.49;100.00
73085;BME280;62974;49.460;10.892;2024-02-28T00:52:18;97608.16;;;4.52;100.00
73085;BME280;62974;49.460;10.892;2024-02-28T00:54:46;97606.97;;;4.31;100.00
73085;BME280;62974;49.460;10.892;2024-02-28T00:57:13;97607.16;;;4.29;100.00
73085;BME280;62974;49.460;10.892;2024-02-28T00:59:42;97605.84;;;4.33;100.00
73085;BME280;62974;49.460;10.892;2024-02-28T01:02:10;97583.56;;;4.02;100.00
73085;BME280;62974;49.460;10.892;2024-02-28T01:04:39;97588.72;;;4.28;100.00
73085;BME280;62974;49.460;10.892;2024-02-28T01:07:06;97582.41;;;3.96;100.00
73085;BME280;62974;49.460;10.892;2024-02-28T01:09:34;97568.63;;;4.17;100.00
73085;BME280;62974;49.460;10.892;2024-02-28T01:12:02;97589.19;;;4.15;100.00
73085;BME280;62974;49.460;10.892;2024-02-28T01:14:30;97579.06;;;3.94;100.00
73085;BME280;62974;49.460;10.892;2024-02-28T01:16:59;97574.09;;;4.07;100.00
73085;BME280;62974;49.460;10.892;2024-02-28T01:19:27;97583.25;;;4.45;100.00
73085;BME280;62974;49.460;10.892;2024-02-28T01:21:54;97597.69;;;4.35;100.00
73085;BME280;62974;49.460;10.892;2024-02-28T01:24:22;97627.22;;;4.88;100.00
73085;BME280;62974;49.460;10.892;2024-02-28T01:26:49;97652.50;;;4.76;100.00
73085;BME280;62974;49.460;10.892;2024-02-28T01:29:17;97632.91;;;4.20;100.00
73085;BME280;62974;49.460;10.892;2024-02-28T01:31:45;97603.47;;;3.90;100.00
73085;BME280;62974;49.460;10.892;2024-02-28T01:34:14;97588.88;;;4.02;100.00
73085;BME280;62974;49.460;10.892;2024-02-28T01:36:41;97603.69;;;4.37;100.00
73085;BME280;62974;49.460;10.892;2024-02-28T01:39:12;97594.69;;;4.13;100.00
73085;BME280;62974;49.460;10.892;2024-02-28T01:41:39;97605.34;;;4.38;100.00
73085;BME280;62974;49.460;10.892;2024-02-28T01:44:09;97622.44;;;4.19;100.00
73085;BME280;62974;49.460;10.892;2024-02-28T01:46:37;97601.16;;;4.51;100.00
73085;BME280;62974;49.460;10.892;2024-02-28T01:49:04;97597.31;;;3.81;100.00
73085;BME280;62974;49.460;10.892;2024-02-28T01:51:34;97587.56;;;4.06;100.00
73085;BME280;62974;49.460;10.892;2024-02-28T01:54:02;97605.47;;;3.96;100.00
73085;BME280;62974;49.460;10.892;2024-02-28T01:56:30;97589.69;;;3.86;100.00
73085;BME280;62974;49.460;10.892;2024-02-28T01:58:58;97586.53;;;4.07;100.00
73085;BME280;62974;49.460;10.892;2024-02-28T02:01:26;97603.00;;;4.43;100.00
73085;BME280;62974;49.460;10.892;2024-02-28T02:03:54;97624.56;;;3.99;100.00
73085;BME280;62974;49.460;10.892;2024-02-28T02:06:22;97602.16;;;4.02;100.00
73085;BME280;62974;49.460;10.892;2024-02-28T02:08:51;97602.28;;;3.76;100.00
73085;BME280;62974;49.460;10.892;2024-02-28T02:11:19;97611.97;;;4.09;100.00
73085;BME280;62974;49.460;10.892;2024-02-28T02:13:47;97603.47;;;3.82;100.00
73085;BME280;62974;49.460;10.892;2024-02-28T02:16:16;97602.34;;;4.08;100.00
73085;BME280;62974;49.460;10.892;2024-02-28T02:18:44;97615.72;;;3.83;100.00
73085;BME280;62974;49.460;10.892;2024-02-28T02:21:13;97621.94;;;4.15;100.00
73085;BME280;62974;49.460;10.892;2024-02-28T02:23:44;97621.91;;;4.07;100.00
73085;BME280;62974;49.460;10.892;2024-02-28T02:26:11;97660.31;;;4.37;100.00
73085;BME280;62974;49.460;10.892;2024-02-28T02:28:39;97663.97;;;4.28;100.00
73085;BME280;62974;49.460;10.892;2024-02-28T02:31:10;97652.31;;;4.05;100.00
73085;BME280;62974;49.460;10.892;2024-02-28T02:33:38;97644.41;;;3.71;100.00
73085;BME280;62974;49.460;10.892;2024-02-28T02:36:06;97638.28;;;3.78;100.00
73085;BME280;62974;49.460;10.892;2024-02-28T02:38:34;97625.72;;;3.89;100.00
73085;BME280;62974;49.460;10.892;2024-02-28T02:41:03;97653.19;;;4.38;100.00
73085;BME280;62974;49.460;10.892;2024-02-28T02:43:30;97701.34;;;4.51;100.00
73085;BME280;62974;49.460;10.892;2024-02-28T02:45:58;97701.56;;;4.73;100.00
73085;BME280;62974;49.460;10.892;2024-02-28T02:48:26;97716.78;;;4.31;100.00
73085;BME280;62974;49.460;10.892;2024-02-28T02:50:53;97709.34;;;4.59;100.00
73085;BME280;62974;49.460;10.892;2024-02-28T02:53:21;97705.94;;;4.08;100.00
73085;BME280;62974;49.460;10.892;2024-02-28T02:55:48;97691.06;;;4.48;100.00
73085;BME280;62974;49.460;10.892;2024-02-28T02:58:17;97698.06;;;4.49;100.00
73085;BME280;62974;49.460;10.892;2024-02-28T03:00:45;97701.69;;;3.73;100.00
73085;BME280;62974;49.460;10.892;2024-02-28T03:03:13;97699.34;;;4.20;100.00
73085;BME280;62974;49.460;10.892;2024-02-28T03:05:40;97718.31;;;4.74;100.00
73085;BME280;62974;49.460;10.892;2024-02-28T03:08:08;97731.25;;;4.37;100.00
73085;BME280;62974;49.460;10.892;2024-02-28T03:10:35;97725.56;;;4.23;100.00
73085;BME280;62974;49.460;10.892;2024-02-28T03:13:03;97724.53;;;4.00;100.00
73085;BME280;62974;49.460;10.892;2024-02-28T03:15:34;97706.03;;;3.83;100.00
73085;BME280;62974;49.460;10.892;2024-02-28T03:18:02;97692.16;;;3.63;100.00
73085;BME280;62974;49.460;10.892;2024-02-28T03:20:29;97669.69;;;3.83;100.00
73085;BME280;62974;49.460;10.892;2024-02-28T03:22:57;97681.00;;;3.93;100.00
73085;BME280;62974;49.460;10.892;2024-02-28T03:25:25;97687.19;;;4.10;100.00
73085;BME280;62974;49.460;10.892;2024-02-28T03:27:52;97713.53;;;4.61;100.00
73085;BME280;62974;49.460;10.892;2024-02-28T03:30:21;97755.91;;;4.95;100.00
73085;BME280;62974;49.460;10.892;2024-02-28T03:32:50;97770.53;;;4.75;100.00
73085;BME280;62974;49.460;10.892;2024-02-28T03:35:17;97781.53;;;5.04;100.00
73085;BME280;62974;49.460;10.892;2024-02-28T03:37:45;97789.16;;;5.15;100.00
73085;BME280;62974;49.460;10.892;2024-02-28T03:40:12;97785.03;;;5.05;100.00
73085;BME280;62974;49.460;10.892;2024-02-28T03:42:41;97791.00;;;4.99;100.00
73085;BME280;62974;49.460;10.892;2024-02-28T03:45:08;97797.50;;;5.20;100.00
73085;BME280;62974;49.460;10.892;2024-02-28T03:47:36;97815.63;;;5.33;100.00
73085;BME280;62974;49.460;10.892;2024-02-28T03:50:06;97820.94;;;5.01;100.00
73085;BME280;62974;49.460;10.892;2024-02-28T03:52:34;97814.28;;;5.05;100.00
73085;BME280;62974;49.460;10.892;2024-02-28T03:55:01;97817.94;;;4.96;100.00
73085;BME280;62974;49.460;10.892;2024-02-28T03:57:29;97822.91;;;4.91;100.00
73085;BME280;62974;49.460;10.892;2024-02-28T04:00:00;97798.94;;;4.74;100.00
73085;BME280;62974;49.460;10.892;2024-02-28T04:02:28;97798.78;;;4.10;100.00
73085;BME280;62974;49.460;10.892;2024-02-28T04:04:56;97768.25;;;3.80;100.00
73085;BME280;62974;49.460;10.892;2024-02-28T04:07:24;97755.81;;;4.31;100.00
73085;BME280;62974;49.460;10.892;2024-02-28T04:09:52;97791.81;;;4.83;100.00
73085;BME280;62974;49.460;10.892;2024-02-28T04:12:19;97801.50;;;4.34;100.00
73085;BME280;62974;49.460;10.892;2024-02-28T04:14:47;97803.25;;;4.67;100.00
73085;BME280;62974;49.460;10.892;2024-02-28T04:17:15;97802.19;;;4.36;100.00
73085;BME280;62974;49.460;10.892;2024-02-28T04:19:42;97791.38;;;4.30;100.00
73085;BME280;62974;49.460;10.892;2024-02-28T04:22:10;97781.31;;;4.57;100.00
73085;BME280;62974;49.460;10.892;2024-02-28T04:24:39;97794.22;;;4.36;100.00
73085;BME280;62974;49.460;10.892;2024-02-28T04:27:06;97821.63;;;4.37;100.00
73085;BME280;62974;49.460;10.892;2024-02-28T04:29:36;97799.78;;;4.09;100.00
73085;BME280;62974;49.460;10.892;2024-02-28T04:32:04;97801.00;;;4.31;100.00
73085;BME280;62974;49.460;10.892;2024-02-28T04:34:32;97805.50;;;4.38;100.00
73085;BME280;62974;49.460;10.892;2024-02-28T04:36:59;97808.00;;;4.32;100.00
73085;BME280;62974;49.460;10.892;2024-02-28T04:39:27;97789.72;;;3.95;100.00
73085;BME280;62974;49.460;10.892;2024-02-28T04:41:57;97774.91;;;4.26;100.00
73085;BME280;62974;49.460;10.892;2024-02-28T04:44:25;97787.84;;;4.13;100.00
73085;BME280;62974;49.460;10.892;2024-02-28T04:46:53;97804.75;;;4.12;100.00
73085;BME280;62974;49.460;10.892;2024-02-28T04:49:23;97788.34;;;4.16;100.00
73085;BME280;62974;49.460;10.892;2024-02-28T04:51:51;97788.38;;;3.91;100.00
73085;BME280;62974;49.460;10.892;2024-02-28T04:54:19;97776.47;;;4.03;100.00
73085;BME280;62974;49.460;10.892;2024-02-28T04:56:47;97782.41;;;3.89;100.00
73085;BME280;62974;49.460;10.892;2024-02-28T04:59:16;97797.31;;;4.15;100.00
73085;BME280;62974;49.460;10.892;2024-02-28T05:01:44;97792.94;;;4.06;100.00
73085;BME280;62974;49.460;10.892;2024-02-28T05:04:12;97783.72;;;3.85;100.00
73085;BME280;62974;49.460;10.892;2024-02-28T05:06:40;97785.97;;;4.05;100.00
73085;BME280;62974;49.460;10.892;2024-02-28T05:09:07;97787.88;;;4.21;100.00
73085;BME280;62974;49.460;10.892;2024-02-28T05:11:37;97798.97;;;4.16;100.00
73085;BME280;62974;49.460;10.892;2024-02-28T05:14:05;97804.84;;;4.36;100.00
73085;BME280;62974;49.460;10.892;2024-02-28T05:16:34;97779.22;;;3.77;100.00
73085;BME280;62974;49.460;10.892;2024-02-28T05:19:01;97778.00;;;4.05;100.00
73085;BME280;62974;49.460;10.892;2024-02-28T05:21:30;97767.91;;;3.75;100.00
73085;BME280;62974;49.460;10.892;2024-02-28T05:23:58;97768.22;;;3.72;100.00
73085;BME280;62974;49.460;10.892;2024-02-28T05:26:25;97761.59;;;3.76;100.00
73085;BME280;62974;49.460;10.892;2024-02-28T05:28:53;97774.34;;;4.06;100.00
73085;BME280;62974;49.460;10.892;2024-02-28T05:31:22;97795.84;;;4.21;100.00
73085;BME280;62974;49.460;10.892;2024-02-28T05:33:54;97791.28;;;4.05;100.00
73085;BME280;62974;49.460;10.892;2024-02-28T05:36:23;97776.19;;;4.06;100.00
73085;BME280;62974;49.460;10.892;2024-02-28T05:38:52;97777.63;;;3.66;100.00
73085;BME280;62974;49.460;10.892;2024-02-28T05:41:19;97766.78;;;3.77;100.00
73085;BME280;62974;49.460;10.892;2024-02-28T05:43:48;97772.31;;;3.92;100.00
73085;BME280;62974;49.460;10.892;2024-02-28T05:46:16;97781.47;;;3.98;100.00
73085;BME280;62974;49.460;10.892;2024-02-28T05:48:44;97786.38;;;3.85;100.00
73085;BME280;62974;49.460;10.892;2024-02-28T05:51:13;97798.00;;;4.17;100.00
73085;BME280;62974;49.460;10.892;2024-02-28T05:53:44;97806.88;;;4.00;100.00
73085;BME280;62974;49.460;10.892;2024-02-28T05:56:12;97798.81;;;4.18;100.00
73085;BME280;62974;49.460;10.892;2024-02-28T05:58:42;97795.88;;;3.95;100.00
73085;BME280;62974;49.460;10.892;2024-02-28T06:01:10;97784.16;;;3.72;100.00
73085;BME280;62974;49.460;10.892;2024-02-28T06:03:38;97785.06;;;3.89;100.00
73085;BME280;62974;49.460;10.892;2024-02-28T06:06:06;97785.22;;;3.87;100.00
73085;BME280;62974;49.460;10.892;2024-02-28T06:08:38;97772.56;;;3.73;100.00
73085;BME280;62974;49.460;10.892;2024-02-28T06:11:06;97789.22;;;3.91;100.00
73085;BME280;62974;49.460;10.892;2024-02-28T06:13:34;97791.78;;;3.75;100.00
73085;BME280;62974;49.460;10.892;2024-02-28T06:16:04;97793.63;;;3.74;100.00
73085;BME280;62974;49.460;10.892;2024-02-28T06:18:31;97790.91;;;3.66;100.00
73085;BME280;62974;49.460;10.892;2024-02-28T06:21:00;97799.53;;;3.60;100.00
73085;BME280;62974;49.460;10.892;2024-02-28T06:23:28;97788.16;;;3.76;100.00
73085;BME280;62974;49.460;10.892;2024-02-28T06:25:57;97804.38;;;3.99;100.00
73085;BME280;62974;49.460;10.892;2024-02-28T06:28:25;97829.81;;;4.01;100.00
73085;BME280;62974;49.460;10.892;2024-02-28T06:30:52;97839.56;;;4.35;100.00
73085;BME280;62974;49.460;10.892;2024-02-28T06:33:20;97860.00;;;4.00;100.00
73085;BME280;62974;49.460;10.892;2024-02-28T06:35:48;97841.03;;;3.95;100.00
73085;BME280;62974;49.460;10.892;2024-02-28T06:38:16;97844.81;;;3.85;100.00
73085;BME280;62974;49.460;10.892;2024-02-28T06:40:43;97829.38;;;3.88;100.00
73085;BME280;62974;49.460;10.892;2024-02-28T06:43:11;97842.66;;;4.14;100.00
73085;BME280;62974;49.460;10.892;2024-02-28T06:45:39;97860.75;;;4.18;100.00
73085;BME280;62974;49.460;10.892;2024-02-28T06:48:07;97848.91;;;3.79;100.00
73085;BME280;62974;49.460;10.892;2024-02-28T06:50:37;97833.72;;;3.89;100.00
73085;BME280;62974;49.460;10.892;2024-02-28T06:53:04;97839.81;;;3.82;100.00
73085;BME280;62974;49.460;10.892;2024-02-28T06:55:32;97866.69;;;4.46;100.00
73085;BME280;62974;49.460;10.892;2024-02-28T06:57:59;97875.06;;;4.17;100.00
73085;BME280;62974;49.460;10.892;2024-02-28T07:00:31;97871.56;;;3.91;100.00
73085;BME280;62974;49.460;10.892;2024-02-28T07:02:59;97858.66;;;3.70;100.00
73085;BME280;62974;49.460;10.892;2024-02-28T07:05:27;97846.66;;;3.66;100.00
73085;BME280;62974;49.460;10.892;2024-02-28T07:07:54;97849.44;;;3.83;100.00
73085;BME280;62974;49.460;10.892;2024-02-28T07:10:22;97868.75;;;3.67;100.00
73085;BME280;62974;49.460;10.892;2024-02-28T07:12:49;97858.59;;;4.14;100.00
73085;BME280;62974;49.460;10.892;2024-02-28T07:15:17;97903.63;;;4.57;100.00
73085;BME280;62974;49.460;10.892;2024-02-28T07:17:47;97927.22;;;4.26;100.00
73085;BME280;62974;49.460;10.892;2024-02-28T07:20:14;97898.41;;;3.80;100.00
73085;BME280;62974;49.460;10.892;2024-02-28T07:22:43;97907.03;;;4.08;100.00
73085;BME280;62974;49.460;10.892;2024-02-28T07:25:10;97914.44;;;3.96;100.00
73085;BME280;62974;49.460;10.892;2024-02-28T07:27:38;97898.84;;;3.75;100.00
73085;BME280;62974;49.460;10.892;2024-02-28T07:30:06;97903.34;;;4.01;100.00
73085;BME280;62974;49.460;10.892;2024-02-28T07:32:34;97925.78;;;4.32;100.00
73085;BME280;62974;49.460;10.892;2024-02-28T07:35:05;97936.47;;;4.14;100.00
73085;BME280;62974;49.460;10.892;2024-02-28T07:37:33;97923.91;;;3.99;100.00
73085;BME280;62974;49.460;10.892;2024-02-28T07:40:04;97925.53;;;4.17;100.00
73085;BME280;62974;49.460;10.892;2024-02-28T07:42:34;97955.47;;;4.53;100.00
73085;BME280;62974;49.460;10.892;2024-02-28T07:45:02;97958.09;;;4.45;100.00
73085;BME280;62974;49.460;10.892;2024-02-28T07:47:30;97933.50;;;4.17;100.00
73085;BME280;62974;49.460;10.892;2024-02-28T07:49:57;97937.00;;;4.18;100.00
73085;BME280;62974;49.460;10.892;2024-02-28T07:52:27;97940.81;;;3.90;100.00
73085;BME280;62974;49.460;10.892;2024-02-28T07:54:54;97930.34;;;4.22;100.00
73085;BME280;62974;49.460;10.892;2024-02-28T07:57:22;97956.91;;;4.14;100.00
73085;BME280;62974;49.460;10.892;2024-02-28T07:59:50;97966.13;;;4.28;100.00
73085;BME280;62974;49.460;10.892;2024-02-28T08:02:17;97967.16;;;4.09;100.00
73085;BME280;62974;49.460;10.892;2024-02-28T08:04:47;97969.81;;;4.09;100.00
73085;BME280;62974;49.460;10.892;2024-02-28T08:07:16;97972.16;;;4.12;100.00
73085;BME280;62974;49.460;10.892;2024-02-28T08:09:45;97956.50;;;3.83;100.00
73085;BME280;62974;49.460;10.892;2024-02-28T08:12:12;97962.44;;;4.20;100.00
73085;BME280;62974;49.460;10.892;2024-02-28T08:14:40;97964.88;;;4.14;100.00
73085;BME280;62974;49.460;10.892;2024-02-28T08:17:08;97985.56;;;4.28;100.00
73085;BME280;62974;49.460;10.892;2024-02-28T08:19:35;97995.81;;;4.23;100.00
73085;BME280;62974;49.460;10.892;2024-02-28T08:22:03;97989.41;;;4.08;100.00
73085;BME280;62974;49.460;10.892;2024-02-28T08:24:33;97994.25;;;4.38;100.00
73085;BME280;62974;49.460;10.892;2024-02-28T08:27:02;98013.84;;;4.11;100.00
73085;BME280;62974;49.460;10.892;2024-02-28T08:29:29;97996.78;;;4.14;100.00
73085;BME280;62974;49.460;10.892;2024-02-28T08:31:58;98010.56;;;4.17;100.00
73085;BME280;62974;49.460;10.892;2024-02-28T08:34:26;98011.72;;;4.41;100.00
73085;BME280;62974;49.460;10.892;2024-02-28T08:36:53;98017.59;;;4.26;100.00
73085;BME280;62974;49.460;10.892;2024-02-28T08:39:21;98007.53;;;4.38;100.00
73085;BME280;62974;49.460;10.892;2024-02-28T08:41:49;98016.88;;;4.16;100.00
73085;BME280;62974;49.460;10.892;2024-02-28T08:44:18;98019.28;;;4.28;100.00
73085;BME280;62974;49.460;10.892;2024-02-28T08:46:47;98021.00;;;3.93;100.00
73085;BME280;62974;49.460;10.892;2024-02-28T08:49:15;98029.19;;;4.43;100.00
73085;BME280;62974;49.460;10.892;2024-02-28T08:51:43;98039.06;;;4.07;100.00
73085;BME280;62974;49.460;10.892;2024-02-28T08:54:14;98039.38;;;4.30;100.00
73085;BME280;62974;49.460;10.892;2024-02-28T08:56:42;98042.84;;;4.48;100.00
73085;BME280;62974;49.460;10.892;2024-02-28T08:59:23;98032.41;;;4.29;100.00
73085;BME280;62974;49.460;10.892;2024-02-28T09:01:51;98046.59;;;4.63;100.00
73085;BME280;62974;49.460;10.892;2024-02-28T09:04:19;98048.09;;;4.66;100.00
73085;BME280;62974;49.460;10.892;2024-02-28T09:06:47;98049.19;;;4.30;100.00
73085;BME280;62974;49.460;10.892;2024-02-28T09:09:15;98038.41;;;4.31;100.00
73085;BME280;62974;49.460;10.892;2024-02-28T09:11:43;98049.41;;;4.62;100.00
73085;BME280;62974;49.460;10.892;2024-02-28T09:14:11;98060.63;;;4.73;100.00
73085;BME280;62974;49.460;10.892;2024-02-28T09:16:40;98054.19;;;4.33;100.00
73085;BME280;62974;49.460;10.892;2024-02-28T09:19:07;98061.81;;;4.79;100.00
73085;BME280;62974;49.460;10.892;2024-02-28T09:21:34;98069.78;;;4.79;100.00
73085;BME280;62974;49.460;10.892;2024-02-28T09:24:03;98061.25;;;4.67;100.00
73085;BME280;62974;49.460;10.892;2024-02-28T09:26:31;98064.06;;;4.66;100.00
73085;BME280;62974;49.460;10.892;2024-02-28T09:29:01;98061.00;;;4.87;100.00
73085;BME280;62974;49.460;10.892;2024-02-28T09:31:28;98062.28;;;4.49;100.00
73085;BME280;62974;49.460;10.892;2024-02-28T09:33:57;98038.50;;;4.21;100.00
73085;BME280;62974;49.460;10.892;2024-02-28T09:36:26;98039.38;;;4.30;100.00
73085;BME280;62974;49.460;10.892;2024-02-28T09:38:54;98032.38;;;4.03;100.00
73085;BME280;62974;49.460;10.892;2024-02-28T09:41:23;98014.22;;;4.16;100.00
73085;BME280;62974;49.460;10.892;2024-02-28T09:43:53;98020.31;;;4.09;100.00
73085;BME280;62974;49.460;10.892;2024-02-28T09:46:20;98028.66;;;4.40;100.00
73085;BME280;62974;49.460;10.892;2024-02-28T09:48:49;98042.53;;;4.51;100.00
73085;BME280;62974;49.460;10.892;2024-02-28T09:51:21;98058.81;;;4.31;100.00
73085;BME280;62974;49.460;10.892;2024-02-28T09:53:51;98040.16;;;4.22;100.00
73085;BME280;62974;49.460;10.892;2024-02-28T09:56:19;98043.16;;;4.45;100.00
73085;BME280;62974;49.460;10.892;2024-02-28T09:58:46;98038.09;;;4.60;100.00
73085;BME280;62974;49.460;10.892;2024-02-28T10:01:15;98040.59;;;4.61;100.00
73085;BME280;62974;49.460;10.892;2024-02-28T10:03:44;98048.09;;;4.40;100.00
73085;BME280;62974;49.460;10.892;2024-02-28T10:06:12;98049.56;;;4.60;100.00
73085;BME280;62974;49.460;10.892;2024-02-28T10:08:43;98058.59;;;4.67;100.00
73085;BME280;62974;49.460;10.892;2024-02-28T10:11:17;98054.53;;;4.81;100.00
73085;BME280;62974;49.460;10.892;2024-02-28T10:13:45;98063.63;;;4.79;100.00
73085;BME280;62974;49.460;10.892;2024-02-28T10:16:12;98062.25;;;5.00;100.00
73085;BME280;62974;49.460;10.892;2024-02-28T10:18:42;98073.25;;;4.71;100.00
73085;BME280;62974;49.460;10.892;2024-02-28T10:21:09;98062.78;;;4.78;100.00
73085;BME280;62974;49.460;10.892;2024-02-28T10:23:39;98077.97;;;4.86;100.00
73085;BME280;62974;49.460;10.892;2024-02-28T10:26:09;98079.63;;;5.12;100.00
73085;BME280;62974;49.460;10.892;2024-02-28T10:28:37;98090.84;;;4.98;100.00
73085;BME280;62974;49.460;10.892;2024-02-28T10:31:06;98097.50;;;5.02;100.00
73085;BME280;62974;49.460;10.892;2024-02-28T10:33:34;98086.13;;;5.18;100.00
73085;BME280;62974;49.460;10.892;2024-02-28T10:36:03;98092.72;;;5.06;100.00
73085;BME280;62974;49.460;10.892;2024-02-28T10:38:32;98097.00;;;4.99;100.00
73085;BME280;62974;49.460;10.892;2024-02-28T10:41:00;98100.22;;;4.77;100.00
73085;BME280;62974;49.460;10.892;2024-02-28T10:43:29;98100.31;;;4.93;100.00
73085;BME280;62974;49.460;10.892;2024-02-28T10:45:58;98095.09;;;4.83;100.00
73085;BME280;62974;49.460;10.892;2024-02-28T10:48:29;98094.66;;;4.70;100.00
73085;BME280;62974;49.460;10.892;2024-02-28T10:51:03;98087.63;;;4.87;100.00
73085;BME280;62974;49.460;10.892;2024-02-28T10:53:36;98104.94;;;5.16;100.00
73085;BME280;62974;49.460;10.892;2024-02-28T10:56:05;98113.84;;;5.07;100.00
73085;BME280;62974;49.460;10.892;2024-02-28T10:58:40;98118.28;;;4.99;100.00
73085;BME280;62974;49.460;10.892;2024-02-28T11:01:10;98101.81;;;4.95;100.00
73085;BME280;62974;49.460;10.892;2024-02-28T11:03:38;98116.16;;;4.77;100.00
73085;BME280;62974;49.460;10.892;2024-02-28T11:06:16;98101.81;;;4.95;100.00
73085;BME280;62974;49.460;10.892;2024-02-28T11:08:46;98117.25;;;5.26;100.00
73085;BME280;62974;49.460;10.892;2024-02-28T11:11:17;98118.75;;;5.20;100.00
73085;BME280;62974;49.460;10.892;2024-02-28T11:13:54;98126.25;;;5.25;100.00
73085;BME280;62974;49.460;10.892;2024-02-28T11:16:26;98132.06;;;5.20;100.00
73085;BME280;62974;49.460;10.892;2024-02-28T11:18:55;98136.31;;;5.05;100.00
73085;BME280;62974;49.460;10.892;2024-02-28T11:21:23;98133.63;;;5.39;100.00
73085;BME280;62974;49.460;10.892;2024-02-28T11:23:52;98146.13;;;5.04;100.00
73085;BME280;62974;49.460;10.892;2024-02-28T11:26:24;98134.09;;;5.00;100.00
73085;BME280;62974;49.460;10.892;2024-02-28T11:28:55;98131.31;;;5.36;100.00
73085;BME280;62974;49.460;10.892;2024-02-28T11:31:23;98140.81;;;5.46;100.00
73085;BME280;62974;49.460;10.892;2024-02-28T11:33:51;98145.44;;;5.36;100.00
73085;BME280;62974;49.460;10.892;2024-02-28T11:36:19;98145.03;;;5.57;100.00
73085;BME280;62974;49.460;10.892;2024-02-28T11:38:47;98151.72;;;5.61;100.00
73085;BME280;62974;49.460;10.892;2024-02-28T11:41:25;98148.75;;;5.72;100.00
73085;BME280;62974;49.460;10.892;2024-02-28T11:43:54;98158.06;;;5.68;100.00
73085;BME280;62974;49.460;10.892;2024-02-28T11:46:23;98147.22;;;5.69;100.00
73085;BME280;62974;49.460;10.892;2024-02-28T11:48:53;98153.00;;;5.49;100.00
73085;BME280;62974;49.460;10.892;2024-02-28T11:51:22;98150.81;;;5.44;100.00
73085;BME280;62974;49.460;10.892;2024-02-28T11:53:50;98141.50;;;5.48;100.00
73085;BME280;62974;49.460;10.892;2024-02-28T11:56:17;98159.50;;;5.54;100.00
73085;BME280;62974;49.460;10.892;2024-02-28T11:58:50;98156.75;;;5.38;100.00
73085;BME280;62974;49.460;10.892;2024-02-28T12:01:18;98160.59;;;5.36;100.00
73085;BME280;62974;49.460;10.892;2024-02-28T12:03:48;98165.03;;;5.61;100.00
73085;BME280;62974;49.460;10.892;2024-02-28T12:06:16;98167.09;;;5.83;100.00
73085;BME280;62974;49.460;10.892;2024-02-28T12:08:44;98172.41;;;5.75;100.00
73085;BME280;62974;49.460;10.892;2024-02-28T12:11:13;98169.03;;;5.57;100.00
73085;BME280;62974;49.460;10.892;2024-02-28T12:13:41;98165.91;;;5.78;100.00
73085;BME280;62974;49.460;10.892;2024-02-28T12:16:11;98168.25;;;5.73;100.00
73085;BME280;62974;49.460;10.892;2024-02-28T12:18:40;98168.53;;;5.69;100.00
73085;BME280;62974;49.460;10.892;2024-02-28T12:21:09;98159.78;;;5.77;100.00
73085;BME280;62974;49.460;10.892;2024-02-28T12:23:37;98168.19;;;5.56;100.00
73085;BME280;62974;49.460;10.892;2024-02-28T12:26:07;98163.25;;;5.36;100.00
73085;BME280;62974;49.460;10.892;2024-02-28T12:28:35;98154.94;;;5.39;100.00
73085;BME280;62974;49.460;10.892;2024-02-28T12:31:03;98151.75;;;5.69;100.00
73085;BME280;62974;49.460;10.892;2024-02-28T12:33:35;98150.22;;;5.66;100.00
73085;BME280;62974;49.460;10.892;2024-02-28T12:36:02;98151.94;;;5.76;100.00
73085;BME280;62974;49.460;10.892;2024-02-28T12:38:32;98155.84;;;5.97;100.00
73085;BME280;62974;49.460;10.892;2024-02-28T12:40:59;98170.19;;;5.96;100.00
73085;BME280;62974;49.460;10.892;2024-02-28T12:43:29;98168.78;;;5.84;100.00
73085;BME280;62974;49.460;10.892;2024-02-28T12:45:56;98167.31;;;5.90;100.00
73085;BME280;62974;49.460;10.892;2024-02-28T12:48:24;98159.69;;;6.03;100.00
73085;BME280;62974;49.460;10.892;2024-02-28T12:50:52;98167.72;;;6.11;100.00
73085;BME280;62974;49.460;10.892;2024-02-28T12:53:19;98172.59;;;5.82;100.00
73085;BME280;62974;49.460;10.892;2024-02-28T12:55:48;98161.44;;;5.78;100.00